createdAt,value
2023-03-05T00:01:35.695Z,6.40
2023-03-05T00:04:03.722Z,6.40
2023-03-05T00:06:31.413Z,6.30
2023-03-05T00:08:58.556Z,6.30
2023-03-05T00:11:29.693Z,6.20
2023-03-05T00:13:57.468Z,6.20
2023-03-05T00:16:26.705Z,6.20
2023-03-05T00:18:54.848Z,6.20
2023-03-05T00:21:31.607Z,6.20
2023-03-05T00:24:01.421Z,6.20
2023-03-05T00:26:28.860Z,6.10
2023-03-05T00:28:57.519Z,6.10
2023-03-05T00:31:30.118Z,6.20
2023-03-05T00:33:59.806Z,6.20
2023-03-05T00:36:26.526Z,6.30
2023-03-05T00:38:53.265Z,6.30
2023-03-05T00:41:19.795Z,6.20
2023-03-05T00:43:47.002Z,6.30
2023-03-05T00:46:13.533Z,6.30
2023-03-05T00:48:41.341Z,6.20
2023-03-05T00:51:09.098Z,6.20
2023-03-05T00:53:35.830Z,6.20
2023-03-05T00:56:02.338Z,6.20
2023-03-05T00:58:29.436Z,6.20
2023-03-05T01:01:00.033Z,6.20
2023-03-05T01:03:27.404Z,6.30
2023-03-05T01:05:55.709Z,6.30
2023-03-05T01:08:22.193Z,6.30
2023-03-05T01:10:49.144Z,6.30
2023-03-05T01:13:15.848Z,6.30
2023-03-05T01:15:42.334Z,6.20
2023-03-05T01:18:09.013Z,6.20
2023-03-05T01:20:35.899Z,6.30
2023-03-05T01:23:02.732Z,6.20
2023-03-05T01:25:29.233Z,6.20
2023-03-05T01:27:56.140Z,6.30
2023-03-05T01:30:22.636Z,6.30
2023-03-05T01:32:49.062Z,6.30
2023-03-05T01:35:19.198Z,6.30
2023-03-05T01:37:46.220Z,6.30
2023-03-05T01:40:15.794Z,6.30
2023-03-05T01:42:55.253Z,6.30
2023-03-05T01:45:22.131Z,6.30
2023-03-05T01:47:48.938Z,6.30
2023-03-05T01:50:22.924Z,6.20
2023-03-05T01:52:55.183Z,6.20
2023-03-05T01:55:24.488Z,6.20
2023-03-05T01:57:57.081Z,6.20
2023-03-05T02:00:30.929Z,6.20
2023-03-05T02:03:02.977Z,6.20
2023-03-05T02:05:32.720Z,6.20
2023-03-05T02:08:01.034Z,6.30
2023-03-05T02:10:34.718Z,6.30
2023-03-05T02:13:06.396Z,6.30
2023-03-05T02:15:33.970Z,6.30
2023-03-05T02:18:01.289Z,6.30
2023-03-05T02:20:32.046Z,6.40
2023-03-05T02:22:58.479Z,6.40
2023-03-05T02:25:29.767Z,6.30
2023-03-05T02:28:25.375Z,6.30
2023-03-05T02:30:52.188Z,6.10
2023-03-05T02:33:19.687Z,6.10
2023-03-05T02:35:47.299Z,6.20
2023-03-05T02:38:16.731Z,6.30
2023-03-05T02:40:43.464Z,6.30
2023-03-05T02:43:10.914Z,6.30
2023-03-05T02:45:38.273Z,6.30
2023-03-05T02:48:04.856Z,6.30
2023-03-05T02:50:32.097Z,6.30
2023-03-05T02:52:58.913Z,6.30
2023-03-05T02:55:25.510Z,6.30
2023-03-05T02:57:51.948Z,6.40
2023-03-05T03:00:18.635Z,6.30
2023-03-05T03:02:45.152Z,6.20
2023-03-05T03:05:11.647Z,6.20
2023-03-05T03:07:38.210Z,6.20
2023-03-05T03:10:05.786Z,6.20
2023-03-05T03:12:32.279Z,6.20
2023-03-05T03:15:00.895Z,6.20
2023-03-05T03:17:27.383Z,6.20
2023-03-05T03:19:53.828Z,6.10
2023-03-05T03:22:20.236Z,6.00
2023-03-05T03:24:46.736Z,6.00
2023-03-05T03:27:13.235Z,5.90
2023-03-05T03:29:39.689Z,5.90
2023-03-05T03:32:06.439Z,5.90
2023-03-05T03:34:32.982Z,6.00
2023-03-05T03:36:59.435Z,6.00
2023-03-05T03:39:25.873Z,6.00
2023-03-05T03:41:53.431Z,6.00
2023-03-05T03:44:21.381Z,6.10
2023-03-05T03:46:49.577Z,6.10
2023-03-05T03:49:24.893Z,6.10
2023-03-05T03:51:54.296Z,5.90
2023-03-05T03:54:21.962Z,5.90
2023-03-05T03:56:48.395Z,5.90
2023-03-05T03:59:14.916Z,6.00
2023-03-05T04:01:41.504Z,6.00
2023-03-05T04:04:08.790Z,5.90
2023-03-05T04:06:35.668Z,5.90
2023-03-05T04:09:02.285Z,5.90
2023-03-05T04:11:29.010Z,5.90
2023-03-05T04:13:55.641Z,5.90
2023-03-05T04:16:22.336Z,6.00
2023-03-05T04:18:48.983Z,5.90
2023-03-05T04:21:15.438Z,5.90
2023-03-05T04:23:41.979Z,6.00
2023-03-05T04:26:08.617Z,6.00
2023-03-05T04:28:35.790Z,6.00
2023-03-05T04:31:03.164Z,6.10
2023-03-05T04:33:29.614Z,6.10
2023-03-05T04:35:56.197Z,6.10
2023-03-05T04:38:22.776Z,6.00
2023-03-05T04:40:49.210Z,5.90
2023-03-05T04:43:15.617Z,5.90
2023-03-05T04:45:43.947Z,5.80
2023-03-05T04:48:11.101Z,5.70
2023-03-05T04:50:38.044Z,5.70
2023-03-05T04:53:04.688Z,5.70
2023-03-05T04:55:31.418Z,5.70
2023-03-05T04:57:58.410Z,5.80
2023-03-05T05:00:25.175Z,5.80
2023-03-05T05:02:52.290Z,5.70
2023-03-05T05:05:22.456Z,5.60
2023-03-05T05:07:49.043Z,5.60
2023-03-05T05:10:16.853Z,5.40
2023-03-05T05:12:43.479Z,5.40
2023-03-05T05:15:11.868Z,5.40
2023-03-05T05:17:38.345Z,5.40
2023-03-05T05:20:08.202Z,5.40
2023-03-05T05:22:35.161Z,5.50
2023-03-05T05:25:02.096Z,5.60
2023-03-05T05:27:28.529Z,5.60
2023-03-05T05:29:55.028Z,5.70
2023-03-05T05:32:24.054Z,5.60
2023-03-05T05:34:57.786Z,5.60
2023-03-05T05:37:25.417Z,5.70
2023-03-05T05:39:52.374Z,5.70
2023-03-05T05:42:21.215Z,5.70
2023-03-05T05:44:47.760Z,5.70
2023-03-05T05:47:15.995Z,5.70
2023-03-05T05:49:42.643Z,5.80
2023-03-05T05:52:09.084Z,5.90
2023-03-05T05:54:35.590Z,6.00
2023-03-05T05:57:02.048Z,6.00
2023-03-05T05:59:28.550Z,6.10
2023-03-05T06:01:55.134Z,6.00
2023-03-05T06:04:21.864Z,6.00
2023-03-05T06:06:48.363Z,5.80
2023-03-05T06:09:15.089Z,5.70
2023-03-05T06:11:41.652Z,5.60
2023-03-05T06:14:08.768Z,5.50
2023-03-05T06:16:35.407Z,5.60
2023-03-05T06:19:04.513Z,5.80
2023-03-05T06:21:31.408Z,5.70
2023-03-05T06:23:58.672Z,5.70
2023-03-05T06:26:25.656Z,5.70
2023-03-05T06:28:52.588Z,5.80
2023-03-05T06:31:27.709Z,5.90
2023-03-05T06:33:56.483Z,5.90
2023-03-05T06:36:24.846Z,5.90
2023-03-05T06:38:53.502Z,5.90
2023-03-05T06:41:23.020Z,5.90
2023-03-05T06:43:49.508Z,5.80
2023-03-05T06:46:21.960Z,5.80
2023-03-05T06:48:49.181Z,5.80
2023-03-05T06:51:20.252Z,5.90
2023-03-05T06:53:49.382Z,6.00
2023-03-05T06:56:17.194Z,6.00
2023-03-05T06:58:46.193Z,6.10
2023-03-05T07:01:13.928Z,6.20
2023-03-05T07:03:41.128Z,6.30
2023-03-05T07:06:12.006Z,6.30
2023-03-05T07:08:38.972Z,6.20
2023-03-05T07:11:19.944Z,6.20
2023-03-05T07:13:47.781Z,6.20
2023-03-05T07:16:16.618Z,6.30
2023-03-05T07:18:43.738Z,6.30
2023-03-05T07:21:14.709Z,6.30
2023-03-05T07:23:41.093Z,6.40
2023-03-05T07:26:07.568Z,6.50
2023-03-05T07:28:34.567Z,6.50
2023-03-05T07:31:04.777Z,6.50
2023-03-05T07:33:32.076Z,6.60
2023-03-05T07:35:58.650Z,6.70
2023-03-05T07:38:25.213Z,6.80
2023-03-05T07:40:51.649Z,6.80
2023-03-05T07:43:18.859Z,6.90
2023-03-05T07:45:46.272Z,6.90
2023-03-05T07:48:15.274Z,6.90
2023-03-05T07:50:42.037Z,6.90
2023-03-05T07:53:09.213Z,6.90
2023-03-05T07:55:42.200Z,7.00
2023-03-05T07:58:08.695Z,6.90
2023-03-05T08:00:35.127Z,6.90
2023-03-05T08:03:01.610Z,6.90
2023-03-05T08:05:28.172Z,6.90
2023-03-05T08:07:54.593Z,6.90
2023-03-05T08:10:21.058Z,6.90
2023-03-05T08:12:47.534Z,6.80
2023-03-05T08:15:13.974Z,6.80
2023-03-05T08:17:40.462Z,6.80
2023-03-05T08:20:10.700Z,6.80
2023-03-05T08:22:37.870Z,6.80
2023-03-05T08:25:06.193Z,6.80
2023-03-05T08:27:32.620Z,6.70
2023-03-05T08:30:02.567Z,6.60
2023-03-05T08:32:29.247Z,6.60
2023-03-05T08:34:58.312Z,6.70
2023-03-05T08:37:25.106Z,6.60
2023-03-05T08:39:51.560Z,6.50
2023-03-05T08:42:18.088Z,6.50
2023-03-05T08:44:44.678Z,6.50
2023-03-05T08:47:11.161Z,6.60
2023-03-05T08:49:37.600Z,6.70
2023-03-05T08:52:04.132Z,6.70
2023-03-05T08:54:30.604Z,6.60
2023-03-05T08:56:57.036Z,6.60
2023-03-05T08:59:23.499Z,6.50
2023-03-05T09:01:50.158Z,6.60
2023-03-05T09:04:16.846Z,6.70
2023-03-05T09:06:43.360Z,6.70
2023-03-05T09:09:10.048Z,6.70
2023-03-05T09:11:36.999Z,6.70
2023-03-05T09:14:04.893Z,6.70
2023-03-05T09:16:31.569Z,6.90
2023-03-05T09:18:59.172Z,7.00
2023-03-05T09:21:25.744Z,7.10
2023-03-05T09:23:52.318Z,7.20
2023-03-05T09:26:20.065Z,7.20
2023-03-05T09:28:47.659Z,7.20
2023-03-05T09:31:14.196Z,7.10
2023-03-05T09:33:40.849Z,7.20
2023-03-05T09:36:18.392Z,7.10
2023-03-05T09:38:44.843Z,7.00
2023-03-05T09:41:27.941Z,7.00
2023-03-05T09:44:15.969Z,7.10
2023-03-05T09:46:48.417Z,7.10
2023-03-05T09:49:20.577Z,7.10
2023-03-05T09:51:51.311Z,7.10
2023-03-05T09:54:22.926Z,7.20
2023-03-05T09:56:56.534Z,7.30
2023-03-05T09:59:25.853Z,7.40
2023-03-05T10:01:53.327Z,7.40
2023-03-05T10:04:42.236Z,7.40
2023-03-05T10:07:16.791Z,7.50
2023-03-05T10:09:48.884Z,7.60
2023-03-05T10:12:27.687Z,7.60
2023-03-05T10:14:55.114Z,7.80
2023-03-05T10:17:39.483Z,7.80
2023-03-05T10:20:24.717Z,7.90
2023-03-05T10:23:06.490Z,8.00
2023-03-05T10:25:51.775Z,7.90
2023-03-05T10:28:25.129Z,7.90
2023-03-05T10:31:01.051Z,7.90
2023-03-05T10:33:42.236Z,8.00
2023-03-05T10:36:16.663Z,8.00
2023-03-05T10:39:14.654Z,8.00
2023-03-05T10:42:02.360Z,8.00
2023-03-05T10:44:31.546Z,8.00
2023-03-05T10:47:00.641Z,7.80
2023-03-05T10:49:32.229Z,7.90
2023-03-05T10:52:06.178Z,7.90
2023-03-05T10:54:35.731Z,8.00
2023-03-05T10:57:05.063Z,8.10
2023-03-05T10:59:32.339Z,8.10
2023-03-05T11:02:06.277Z,8.20
2023-03-05T11:04:36.561Z,8.20
2023-03-05T11:07:27.608Z,8.00
2023-03-05T11:10:00.124Z,7.90
2023-03-05T11:12:27.529Z,7.90
2023-03-05T11:15:06.287Z,8.00
2023-03-05T11:17:44.432Z,8.00
2023-03-05T11:20:29.223Z,8.00
2023-03-05T11:23:04.504Z,8.00
2023-03-05T11:25:32.834Z,8.00
2023-03-05T11:28:01.036Z,7.90
2023-03-05T11:30:33.979Z,7.90
2023-03-05T11:33:20.349Z,7.90
2023-03-05T11:35:48.435Z,7.90
2023-03-05T11:38:20.962Z,7.80
2023-03-05T11:40:48.314Z,7.90
2023-03-05T11:43:18.038Z,7.80
2023-03-05T11:45:45.758Z,7.70
2023-03-05T11:48:20.850Z,7.70
2023-03-05T11:50:54.236Z,7.70
2023-03-05T11:53:25.328Z,7.70
2023-03-05T11:56:31.564Z,7.70
2023-03-05T11:59:05.076Z,7.70
2023-03-05T12:01:35.912Z,7.70
2023-03-05T12:04:04.224Z,7.60
2023-03-05T12:06:43.045Z,7.70
2023-03-05T12:09:30.197Z,7.80
2023-03-05T12:12:06.196Z,7.90
2023-03-05T12:15:00.998Z,8.00
2023-03-05T12:18:09.066Z,8.00
2023-03-05T12:20:45.762Z,8.00
2023-03-05T12:23:15.660Z,7.90
2023-03-05T12:25:42.045Z,7.90
2023-03-05T12:28:15.260Z,7.90
2023-03-05T12:30:42.288Z,7.90
2023-03-05T12:33:43.816Z,7.80
2023-03-05T12:36:19.251Z,7.80
2023-03-05T12:38:51.821Z,7.70
2023-03-05T12:41:25.394Z,7.70
2023-03-05T12:44:05.250Z,7.80
2023-03-05T12:46:43.545Z,7.70
2023-03-05T12:49:19.123Z,7.60
2023-03-05T12:51:56.591Z,7.50
2023-03-05T12:54:26.781Z,7.40
2023-03-05T12:56:55.930Z,7.40
2023-03-05T12:59:27.867Z,7.50
2023-03-05T13:02:00.469Z,7.50
2023-03-05T13:04:30.411Z,7.60
2023-03-05T13:07:04.807Z,7.60
2023-03-05T13:09:35.719Z,7.60
2023-03-05T13:12:04.769Z,7.50
2023-03-05T13:14:44.950Z,7.60
2023-03-05T13:17:37.971Z,7.60
2023-03-05T13:20:31.335Z,7.60
2023-03-05T13:23:16.005Z,7.50
2023-03-05T13:25:43.561Z,7.50
2023-03-05T13:28:14.153Z,7.50
2023-03-05T13:30:50.251Z,7.60
2023-03-05T13:33:20.002Z,7.60
2023-03-05T13:35:47.338Z,7.70
2023-03-05T13:38:28.450Z,7.80
2023-03-05T13:41:11.395Z,7.80
2023-03-05T13:43:57.694Z,7.70
2023-03-05T13:46:38.641Z,7.70
2023-03-05T13:49:23.448Z,7.60
2023-03-05T13:51:56.467Z,7.50
2023-03-05T13:54:24.884Z,7.50
2023-03-05T13:57:02.894Z,7.50
2023-03-05T13:59:32.310Z,7.50
2023-03-05T14:02:00.702Z,7.50
2023-03-05T14:04:28.238Z,7.60
2023-03-05T14:06:59.611Z,7.60
2023-03-05T14:09:32.096Z,7.60
2023-03-05T14:12:00.736Z,7.50
2023-03-05T14:14:29.065Z,7.40
2023-03-05T14:16:56.064Z,7.50
2023-03-05T14:19:38.834Z,7.60
2023-03-05T14:22:06.485Z,7.50
2023-03-05T14:24:34.019Z,7.50
2023-03-05T14:27:08.629Z,7.50
2023-03-05T14:29:36.196Z,7.40
2023-03-05T14:32:05.972Z,7.40
2023-03-05T14:34:39.744Z,7.30
2023-03-05T14:37:23.275Z,7.40
2023-03-05T14:39:54.107Z,7.50
2023-03-05T14:42:32.952Z,7.60
2023-03-05T14:45:16.217Z,7.50
2023-03-05T14:47:45.676Z,7.40
2023-03-05T14:50:16.844Z,7.30
2023-03-05T14:52:44.747Z,7.30
2023-03-05T14:55:20.105Z,7.20
2023-03-05T14:57:47.951Z,7.10
2023-03-05T15:00:24.078Z,7.20
2023-03-05T15:02:50.803Z,7.20
2023-03-05T15:05:18.366Z,7.30
2023-03-05T15:07:46.386Z,7.20
2023-03-05T15:10:19.370Z,7.30
2023-03-05T15:12:46.879Z,7.20
2023-03-05T15:15:14.704Z,7.20
2023-03-05T15:17:43.652Z,7.30
2023-03-05T15:20:20.076Z,7.40
2023-03-05T15:22:47.021Z,7.40
2023-03-05T15:25:13.738Z,7.50
2023-03-05T15:27:40.928Z,7.60
2023-03-05T15:30:09.489Z,7.80
2023-03-05T15:32:36.052Z,7.90
2023-03-05T15:35:02.643Z,7.90
2023-03-05T15:37:29.396Z,7.80
2023-03-05T15:39:55.917Z,7.80
2023-03-05T15:42:22.423Z,7.70
2023-03-05T15:44:48.963Z,7.70
2023-03-05T15:47:15.517Z,7.70
2023-03-05T15:49:42.011Z,7.70
2023-03-05T15:52:08.685Z,7.60
2023-03-05T15:54:36.259Z,7.70
2023-03-05T15:57:03.443Z,7.70
2023-03-05T15:59:29.903Z,7.70
2023-03-05T16:01:56.492Z,7.70
2023-03-05T16:04:22.995Z,7.70
2023-03-05T16:06:50.517Z,7.60
2023-03-05T16:09:19.059Z,7.60
2023-03-05T16:11:47.972Z,7.60
2023-03-05T16:14:19.224Z,7.60
2023-03-05T16:16:46.052Z,7.60
2023-03-05T16:19:15.547Z,7.50
2023-03-05T16:21:42.456Z,7.50
2023-03-05T16:24:09.201Z,7.50
2023-03-05T16:26:37.256Z,7.50
2023-03-05T16:29:04.193Z,7.50
2023-03-05T16:31:34.025Z,7.50
2023-03-05T16:34:01.600Z,7.50
2023-03-05T16:36:35.018Z,7.40
2023-03-05T16:39:04.151Z,7.30
2023-03-05T16:41:30.711Z,7.30
2023-03-05T16:43:59.438Z,7.20
2023-03-05T16:46:28.494Z,7.10
2023-03-05T16:48:55.389Z,7.10
2023-03-05T16:51:22.605Z,7.00
2023-03-05T16:53:49.553Z,7.00
2023-03-05T16:56:16.615Z,7.00
2023-03-05T16:58:43.166Z,6.90
2023-03-05T17:01:16.418Z,6.90
2023-03-05T17:03:44.005Z,6.90
2023-03-05T17:06:23.140Z,7.00
2023-03-05T17:08:50.669Z,7.00
2023-03-05T17:11:17.560Z,7.00
2023-03-05T17:13:46.491Z,7.00
2023-03-05T17:16:16.917Z,6.90
2023-03-05T17:18:43.444Z,6.80
2023-03-05T17:21:11.572Z,6.90
2023-03-05T17:23:38.764Z,6.90
2023-03-05T17:26:13.834Z,6.80
2023-03-05T17:28:40.950Z,6.80
2023-03-05T17:31:07.690Z,6.80
2023-03-05T17:33:35.230Z,6.90
2023-03-05T17:36:02.538Z,6.90
2023-03-05T17:38:29.626Z,6.90
2023-03-05T17:40:56.151Z,6.80
2023-03-05T17:43:22.707Z,6.80
2023-03-05T17:45:49.232Z,6.80
2023-03-05T17:48:16.233Z,6.80
2023-03-05T17:50:44.921Z,6.70
2023-03-05T17:53:11.561Z,6.70
2023-03-05T17:55:38.968Z,6.70
2023-03-05T17:58:05.549Z,6.70
2023-03-05T18:00:32.527Z,6.70
2023-03-05T18:02:59.753Z,6.70
2023-03-05T18:05:27.557Z,6.70
2023-03-05T18:07:55.398Z,6.60
2023-03-05T18:10:24.518Z,6.60
2023-03-05T18:12:51.545Z,6.60
2023-03-05T18:15:20.967Z,6.60
2023-03-05T18:17:47.692Z,6.60
2023-03-05T18:20:31.075Z,6.50
2023-03-05T18:22:59.748Z,6.50
2023-03-05T18:25:30.692Z,6.50
2023-03-05T18:27:58.971Z,6.40
2023-03-05T18:30:26.056Z,6.40
2023-03-05T18:32:52.567Z,6.50
2023-03-05T18:35:19.185Z,6.50
2023-03-05T18:37:45.773Z,6.50
2023-03-05T18:40:19.556Z,6.50
2023-03-05T18:42:46.211Z,6.50
2023-03-05T18:45:17.778Z,6.50
2023-03-05T18:47:44.628Z,6.50
2023-03-05T18:50:14.821Z,6.50
2023-03-05T18:52:42.419Z,6.50
2023-03-05T18:55:15.585Z,6.50
2023-03-05T18:57:42.109Z,6.50
2023-03-05T19:00:09.428Z,6.40
2023-03-05T19:02:35.932Z,6.40
2023-03-05T19:05:02.794Z,6.40
2023-03-05T19:07:29.893Z,6.40
2023-03-05T19:09:59.602Z,6.40
2023-03-05T19:12:35.121Z,6.40
2023-03-05T19:15:02.665Z,6.30
2023-03-05T19:17:31.657Z,6.30
2023-03-05T19:20:06.216Z,6.30
2023-03-05T19:22:33.355Z,6.30
2023-03-05T19:25:00.343Z,6.30
2023-03-05T19:27:27.049Z,6.30
2023-03-05T19:29:53.638Z,6.30
2023-03-05T19:32:21.887Z,6.30
2023-03-05T19:34:48.813Z,6.30
2023-03-05T19:37:15.690Z,6.30
2023-03-05T19:39:42.511Z,6.30
2023-03-05T19:42:09.228Z,6.30
2023-03-05T19:44:36.164Z,6.30
2023-03-05T19:47:03.006Z,6.30
2023-03-05T19:49:29.795Z,6.30
2023-03-05T19:51:56.885Z,6.30
2023-03-05T19:54:23.668Z,6.30
2023-03-05T19:56:53.585Z,6.30
2023-03-05T19:59:21.070Z,6.30
2023-03-05T20:01:48.946Z,6.30
2023-03-05T20:04:19.415Z,6.30
2023-03-05T20:06:46.286Z,6.30
2023-03-05T20:09:14.019Z,6.20
2023-03-05T20:11:40.925Z,6.20
2023-03-05T20:14:07.610Z,6.30
2023-03-05T20:16:35.932Z,6.20
2023-03-05T20:19:03.672Z,6.30
2023-03-05T20:21:33.722Z,6.30
2023-03-05T20:24:03.844Z,6.30
2023-03-05T20:26:31.025Z,6.20
2023-03-05T20:28:57.850Z,6.20
2023-03-05T20:31:26.839Z,6.20
2023-03-05T20:33:56.081Z,6.20
2023-03-05T20:36:23.722Z,6.20
2023-03-05T20:38:50.493Z,6.10
2023-03-05T20:41:23.121Z,6.20
2023-03-05T20:43:51.509Z,6.20
2023-03-05T20:46:30.433Z,6.20
2023-03-05T20:49:02.354Z,6.10
2023-03-05T20:51:35.776Z,6.10
2023-03-05T20:54:13.277Z,6.20
2023-03-05T20:56:39.897Z,6.10
2023-03-05T20:59:08.835Z,6.10
2023-03-05T21:01:40.785Z,6.10
2023-03-05T21:04:07.951Z,6.10
2023-03-05T21:06:35.498Z,6.20
2023-03-05T21:09:02.665Z,6.10
2023-03-05T21:11:29.460Z,6.10
2023-03-05T21:13:56.011Z,6.10
2023-03-05T21:16:25.007Z,6.10
2023-03-05T21:18:52.623Z,6.10
2023-03-05T21:21:20.048Z,6.00
2023-03-05T21:23:49.486Z,6.00
2023-03-05T21:26:18.410Z,6.10
2023-03-05T21:28:45.083Z,6.10
2023-03-05T21:31:16.682Z,6.00
2023-03-05T21:33:43.524Z,5.90
2023-03-05T21:36:10.355Z,5.90
2023-03-05T21:38:36.957Z,5.90
2023-03-05T21:41:04.314Z,6.00
2023-03-05T21:43:31.613Z,6.00
2023-03-05T21:46:00.409Z,6.00
2023-03-05T21:48:27.286Z,5.90
2023-03-05T21:50:55.128Z,5.90
2023-03-05T21:53:21.854Z,5.90
2023-03-05T21:56:10.857Z,5.90
2023-03-05T21:58:37.334Z,5.90
2023-03-05T22:01:04.003Z,5.90
2023-03-05T22:03:30.815Z,5.90
2023-03-05T22:05:57.519Z,5.90
2023-03-05T22:08:24.540Z,5.90
2023-03-05T22:10:51.118Z,5.90
2023-03-05T22:13:20.781Z,5.80
2023-03-05T22:15:50.205Z,5.80
2023-03-05T22:18:20.113Z,5.80
2023-03-05T22:20:47.659Z,5.70
2023-03-05T22:23:15.649Z,5.70
2023-03-05T22:25:43.317Z,5.70
2023-03-05T22:28:11.387Z,5.70
2023-03-05T22:30:43.636Z,5.70
2023-03-05T22:33:11.012Z,5.60
2023-03-05T22:35:39.433Z,5.70
2023-03-05T22:38:06.628Z,5.70
2023-03-05T22:40:33.368Z,5.70
2023-03-05T22:43:07.571Z,5.70
2023-03-05T22:45:33.955Z,5.70
2023-03-05T22:48:00.426Z,5.60
2023-03-05T22:50:27.186Z,5.70
2023-03-05T22:52:53.825Z,5.70
2023-03-05T22:55:20.844Z,5.70
2023-03-05T22:57:47.535Z,5.70
2023-03-05T23:00:18.282Z,5.70
2023-03-05T23:02:45.102Z,5.70
2023-03-05T23:05:11.735Z,5.70
2023-03-05T23:07:42.477Z,5.70
2023-03-05T23:10:11.137Z,5.70
2023-03-05T23:12:41.102Z,5.60
2023-03-05T23:15:10.251Z,5.60
2023-03-05T23:17:36.743Z,5.60
2023-03-05T23:20:05.090Z,5.60
2023-03-05T23:22:31.523Z,5.60
2023-03-05T23:24:58.026Z,5.70
2023-03-05T23:27:24.515Z,5.70
2023-03-05T23:30:15.438Z,5.70
2023-03-05T23:32:53.889Z,5.60
2023-03-05T23:35:22.445Z,5.60
2023-03-05T23:37:49.602Z,5.60
2023-03-05T23:40:37.907Z,5.60
2023-03-05T23:43:04.608Z,5.60
2023-03-05T23:45:31.777Z,5.60
2023-03-05T23:47:58.520Z,5.60
2023-03-05T23:50:28.485Z,5.50
2023-03-05T23:52:55.293Z,5.50
2023-03-05T23:55:27.438Z,5.50
2023-03-05T23:57:54.629Z,5.50
